Time;durP1;ratioP1;P1;durP2;ratioP2;P2;SDS_P1;SDS_P2;PMS_P1;PMS_P2;Temp;Humidity;BMP_temperature;BMP_pressure;BME280_temperature;BME280_humidity;BME280_pressure;Samples;Min_cycle;Max_cycle;Signal;HPM_P1;HPM_P2
2022/03/17 00:00:26;;;;;;;45.13;21.95;;;;;;;;;;5068477;28;20093;-43
2022/03/17 00:02:52;;;;;;;40.25;20.95;;;;;;;;;;5068181;28;20023;-45
2022/03/17 00:05:18;;;;;;;40.88;21.45;;;;;;;;;;5067687;28;20108;-46
2022/03/17 00:07:44;;;;;;;43.00;20.90;;;;;;;;;;5068933;28;20101;-43
2022/03/17 00:10:14;;;;;;;47.75;23.98;;;;;;;;;;5068389;28;20100;-44
2022/03/17 00:12:41;;;;;;;45.28;22.77;;;;;;;;;;5068970;28;20023;-42
2022/03/17 00:15:10;;;;;;;46.50;25.42;;;;;;;;;;5068648;28;20073;-46
2022/03/17 00:17:37;;;;;;;44.88;24.33;;;;;;;;;;5066945;28;20050;-45
2022/03/17 00:20:03;;;;;;;51.72;25.73;;;;;;;;;;5067412;28;20046;-45
2022/03/17 00:22:30;;;;;;;37.05;20.80;;;;;;;;;;5068653;28;20039;-42
2022/03/17 00:24:58;;;;;;;44.38;23.25;;;;;;;;;;5067224;28;20031;-44
2022/03/17 00:27:24;;;;;;;39.10;21.63;;;;;;;;;;5068345;28;20561;-42
2022/03/17 00:29:51;;;;;;;43.95;23.17;;;;;;;;;;5067622;28;20027;-42
2022/03/17 00:32:18;;;;;;;49.28;21.35;;;;;;;;;;5067211;28;20024;-43
2022/03/17 00:37:28;;;;;;;42.17;20.13;;;;;;;;;;5068085;28;20160;-42
2022/03/17 00:39:54;;;;;;;41.03;19.95;;;;;;;;;;5061573;28;20080;-43
2022/03/17 00:42:21;;;;;;;31.38;17.00;;;;;;;;;;5067846;28;20557;-42
2022/03/17 00:44:47;;;;;;;39.28;19.67;;;;;;;;;;5066358;28;20035;-43
2022/03/17 00:47:14;;;;;;;36.13;17.50;;;;;;;;;;5068107;28;20039;-43
2022/03/17 00:49:44;;;;;;;39.70;18.85;;;;;;;;;;5066743;28;20032;-43
2022/03/17 00:52:11;;;;;;;40.65;18.98;;;;;;;;;;5094052;28;20603;-44
2022/03/17 00:54:39;;;;;;;34.53;17.27;;;;;;;;;;5114494;28;20136;-44
2022/03/17 00:57:05;;;;;;;40.10;19.77;;;;;;;;;;5114302;28;20016;-44
2022/03/17 00:59:34;;;;;;;41.75;18.90;;;;;;;;;;5114154;28;20020;-43
2022/03/17 01:02:00;;;;;;;37.08;18.52;;;;;;;;;;5114133;28;20030;-44
2022/03/17 01:04:26;;;;;;;35.85;17.48;;;;;;;;;;5114346;28;20468;-44
2022/03/17 01:06:52;;;;;;;36.70;18.08;;;;;;;;;;5114258;28;20403;-44
2022/03/17 01:09:18;;;;;;;35.95;17.70;;;;;;;;;;5095589;28;20074;-44
2022/03/17 01:11:45;;;;;;;36.15;19.23;;;;;;;;;;5114056;28;20049;-45
2022/03/17 01:14:13;;;;;;;40.28;18.65;;;;;;;;;;5113964;28;20022;-43
2022/03/17 01:16:39;;;;;;;36.85;18.63;;;;;;;;;;5114023;28;20024;-43
2022/03/17 01:19:05;;;;;;;44.10;19.88;;;;;;;;;;5114168;28;20024;-44
2022/03/17 01:21:31;;;;;;;38.17;18.58;;;;;;;;;;5113962;28;20067;-43
2022/03/17 01:23:57;;;;;;;33.17;17.83;;;;;;;;;;5113897;28;20022;-43
2022/03/17 01:26:24;;;;;;;36.40;19.15;;;;;;;;;;5113882;28;20020;-44
2022/03/17 01:28:50;;;;;;;41.03;19.00;;;;;;;;;;5113713;28;20020;-44
2022/03/17 01:31:16;;;;;;;35.90;18.42;;;;;;;;;;5113870;28;20028;-44
2022/03/17 01:33:42;;;;;;;41.65;19.60;;;;;;;;;;5113818;28;20425;-43
2022/03/17 01:36:08;;;;;;;35.15;18.10;;;;;;;;;;5113742;28;20127;-43
2022/03/17 01:38:34;;;;;;;38.60;18.33;;;;;;;;;;5113912;28;20020;-45
2022/03/17 01:41:01;;;;;;;39.33;19.35;;;;;;;;;;5113596;28;20023;-45
2022/03/17 01:43:27;;;;;;;40.65;19.85;;;;;;;;;;5113593;28;20024;-45
2022/03/17 01:45:53;;;;;;;35.22;18.45;;;;;;;;;;5113500;28;20387;-45
2022/03/17 01:48:22;;;;;;;39.92;20.30;;;;;;;;;;5116785;28;20498;-44
2022/03/17 01:50:53;;;;;;;36.35;19.42;;;;;;;;;;5099438;28;20080;-45
2022/03/17 01:53:22;;;;;;;37.67;18.45;;;;;;;;;;5117765;28;20020;-45
2022/03/17 01:55:50;;;;;;;37.22;18.23;;;;;;;;;;5117667;28;20034;-44
2022/03/17 01:58:16;;;;;;;39.58;19.27;;;;;;;;;;5117561;28;20035;-45
2022/03/17 02:00:43;;;;;;;42.72;20.35;;;;;;;;;;5117761;28;20024;-45
2022/03/17 02:03:09;;;;;;;37.05;18.55;;;;;;;;;;5117494;28;20068;-45
2022/03/17 02:05:35;;;;;;;40.25;19.50;;;;;;;;;;5117593;28;20039;-45
2022/03/17 02:08:02;;;;;;;36.63;18.83;;;;;;;;;;5117518;28;20022;-45
2022/03/17 02:13:08;;;;;;;35.70;18.15;;;;;;;;;;5117437;28;20467;-46
2022/03/17 02:13:16;;;;;;;37.47;18.33;;;;;;;;;;5117131;28;20403;-47
2022/03/17 02:15:43;;;;;;;40.10;19.02;;;;;;;;;;5117486;28;20022;-47
2022/03/17 02:18:09;;;;;;;32.38;17.80;;;;;;;;;;5117393;28;20031;-45
2022/03/17 02:20:36;;;;;;;36.75;18.33;;;;;;;;;;5117216;28;20031;-45
2022/03/17 02:26:01;;;;;;;32.22;18.20;;;;;;;;;;5117193;28;20100;-45
2022/03/17 02:28:28;;;;;;;38.97;19.23;;;;;;;;;;5117003;28;20027;-46
2022/03/17 02:30:57;;;;;;;39.08;19.25;;;;;;;;;;5117035;28;20024;-44
2022/03/17 02:33:23;;;;;;;35.50;18.77;;;;;;;;;;5117206;28;20026;-44
2022/03/17 02:35:51;;;;;;;36.10;18.52;;;;;;;;;;5116926;28;20031;-45
2022/03/17 02:38:17;;;;;;;38.50;18.80;;;;;;;;;;5116807;28;20069;-44
2022/03/17 02:40:46;;;;;;;37.13;18.77;;;;;;;;;;5117008;28;20433;-43
2022/03/17 02:43:14;;;;;;;38.28;19.10;;;;;;;;;;5116593;28;20031;-43
2022/03/17 02:45:41;;;;;;;36.70;18.15;;;;;;;;;;5116668;28;20468;-43
2022/03/17 02:48:07;;;;;;;35.60;18.65;;;;;;;;;;5125302;27;20587;-44
2022/03/17 02:50:34;;;;;;;32.92;17.25;;;;;;;;;;5137117;27;20027;-44
2022/03/17 02:53:05;;;;;;;33.10;18.85;;;;;;;;;;5136976;27;20087;-44
2022/03/17 02:55:32;;;;;;;37.38;18.45;;;;;;;;;;5136917;27;20034;-45
2022/03/17 02:57:58;;;;;;;36.47;19.73;;;;;;;;;;5136667;27;20019;-43
2022/03/17 03:00:24;;;;;;;38.42;19.13;;;;;;;;;;5136801;27;20114;-43
2022/03/17 03:02:51;;;;;;;35.55;19.38;;;;;;;;;;5136841;27;20039;-45
2022/03/17 03:05:17;;;;;;;32.85;18.45;;;;;;;;;;5136758;27;20019;-45
2022/03/17 03:07:43;;;;;;;38.45;18.88;;;;;;;;;;5136629;27;20029;-43
2022/03/17 03:10:09;;;;;;;37.20;19.05;;;;;;;;;;5136952;27;20031;-43
2022/03/17 03:12:35;;;;;;;33.45;18.30;;;;;;;;;;5136807;27;20019;-43
2022/03/17 03:15:02;;;;;;;34.08;18.45;;;;;;;;;;5136769;27;20031;-44
2022/03/17 03:17:28;;;;;;;35.33;18.88;;;;;;;;;;5136521;27;20035;-43
2022/03/17 03:19:54;;;;;;;35.65;18.63;;;;;;;;;;5136776;27;20023;-43
2022/03/17 03:22:20;;;;;;;34.15;18.40;;;;;;;;;;5136309;27;20115;-44
2022/03/17 03:24:47;;;;;;;38.58;20.20;;;;;;;;;;5136396;27;20021;-43
2022/03/17 03:27:13;;;;;;;36.75;19.58;;;;;;;;;;5136462;27;20168;-44
2022/03/17 03:29:39;;;;;;;36.88;19.88;;;;;;;;;;5136389;27;20020;-43
2022/03/17 03:32:06;;;;;;;36.92;19.13;;;;;;;;;;5136330;27;20050;-44
2022/03/17 03:34:32;;;;;;;36.80;19.77;;;;;;;;;;5136287;27;20023;-43
2022/03/17 03:39:43;;;;;;;33.90;17.75;;;;;;;;;;5136586;27;20095;-44
2022/03/17 03:42:09;;;;;;;35.30;19.20;;;;;;;;;;5135915;27;20038;-44
2022/03/17 03:44:38;;;;;;;32.65;18.33;;;;;;;;;;5136081;27;20110;-44
2022/03/17 03:47:10;;;;;;;38.00;19.83;;;;;;;;;;5135812;27;20106;-44
2022/03/17 03:49:39;;;;;;;36.08;18.67;;;;;;;;;;5135860;27;20126;-46
2022/03/17 03:52:09;;;;;;;37.75;20.45;;;;;;;;;;5135894;27;20090;-45
2022/03/17 03:54:35;;;;;;;35.28;18.88;;;;;;;;;;5117952;27;20047;-44
2022/03/17 03:57:01;;;;;;;36.67;18.98;;;;;;;;;;5135869;27;20023;-43
2022/03/17 03:59:31;;;;;;;34.17;18.48;;;;;;;;;;5135686;27;20471;-43
2022/03/17 04:01:57;;;;;;;32.50;18.60;;;;;;;;;;5135701;27;20038;-43
2022/03/17 04:04:24;;;;;;;35.83;19.38;;;;;;;;;;5135567;27;20023;-44
2022/03/17 04:07:01;;;;;;;36.13;19.42;;;;;;;;;;5135813;27;20019;-43
2022/03/17 04:09:35;;;;;;;32.20;18.00;;;;;;;;;;5134783;27;20452;-45
2022/03/17 04:12:02;;;;;;;36.88;19.00;;;;;;;;;;5135299;27;20035;-45
2022/03/17 04:14:28;;;;;;;38.03;20.25;;;;;;;;;;5135482;27;20015;-44
2022/03/17 04:16:54;;;;;;;38.05;21.05;;;;;;;;;;5135301;27;20579;-45
2022/03/17 04:19:20;;;;;;;35.92;20.05;;;;;;;;;;5135521;27;20195;-46
2022/03/17 04:21:47;;;;;;;36.22;20.90;;;;;;;;;;5135350;27;20034;-44
2022/03/17 04:24:13;;;;;;;37.20;20.67;;;;;;;;;;5135360;27;20420;-44
2022/03/17 04:26:39;;;;;;;37.38;20.50;;;;;;;;;;5135396;27;20020;-44
2022/03/17 04:29:06;;;;;;;34.28;19.75;;;;;;;;;;5116588;27;20391;-45
2022/03/17 04:31:33;;;;;;;34.85;18.88;;;;;;;;;;5134937;27;20019;-46
2022/03/17 04:34:00;;;;;;;35.05;20.50;;;;;;;;;;5134764;27;20027;-46
2022/03/17 04:36:26;;;;;;;35.13;18.85;;;;;;;;;;5134807;27;20486;-45
2022/03/17 04:38:52;;;;;;;35.25;19.13;;;;;;;;;;5134910;27;20054;-45
2022/03/17 04:41:18;;;;;;;35.88;19.10;;;;;;;;;;5134872;27;20047;-45
2022/03/17 04:43:45;;;;;;;34.10;19.15;;;;;;;;;;5134836;27;20035;-45
2022/03/17 04:46:11;;;;;;;33.55;19.10;;;;;;;;;;5134771;27;20038;-43
2022/03/17 04:48:37;;;;;;;35.60;20.23;;;;;;;;;;5134608;27;20250;-44
2022/03/17 04:51:04;;;;;;;39.63;19.92;;;;;;;;;;5134836;27;20027;-44
2022/03/17 04:53:32;;;;;;;38.00;19.80;;;;;;;;;;5134808;27;20019;-44
2022/03/17 04:56:00;;;;;;;36.05;19.58;;;;;;;;;;5134737;27;20019;-43
2022/03/17 04:58:26;;;;;;;34.45;19.00;;;;;;;;;;5134527;27;20049;-44
2022/03/17 05:00:53;;;;;;;32.58;18.45;;;;;;;;;;5134726;27;20072;-46
2022/03/17 05:03:19;;;;;;;37.80;20.60;;;;;;;;;;5134522;27;20023;-46
2022/03/17 05:05:46;;;;;;;36.15;20.40;;;;;;;;;;5134666;27;20023;-44
2022/03/17 05:08:12;;;;;;;36.95;20.50;;;;;;;;;;5134455;27;20023;-43
2022/03/17 05:10:38;;;;;;;40.03;20.27;;;;;;;;;;5134537;27;20016;-46
2022/03/17 05:13:05;;;;;;;39.13;20.95;;;;;;;;;;5134303;27;20467;-46
2022/03/17 05:15:32;;;;;;;38.33;20.42;;;;;;;;;;5134470;27;20027;-43
2022/03/17 05:17:58;;;;;;;42.33;21.38;;;;;;;;;;5134331;27;20034;-45
2022/03/17 05:20:24;;;;;;;45.50;20.45;;;;;;;;;;5134293;27;20558;-44
2022/03/17 05:22:50;;;;;;;39.75;20.15;;;;;;;;;;5133531;27;20039;-44
2022/03/17 05:25:16;;;;;;;38.10;20.20;;;;;;;;;;5134289;27;20015;-44
2022/03/17 05:27:43;;;;;;;34.83;19.13;;;;;;;;;;5134113;27;20505;-44
2022/03/17 05:30:14;;;;;;;36.35;19.13;;;;;;;;;;5134263;27;20034;-45
2022/03/17 05:32:43;;;;;;;35.50;19.17;;;;;;;;;;5134157;27;20034;-45
2022/03/17 05:35:12;;;;;;;37.22;19.85;;;;;;;;;;5134259;28;20425;-44
2022/03/17 05:37:39;;;;;;;36.33;19.80;;;;;;;;;;5134068;28;20034;-46
2022/03/17 05:40:07;;;;;;;36.33;19.33;;;;;;;;;;5134308;28;20491;-44
2022/03/17 05:42:34;;;;;;;33.08;17.98;;;;;;;;;;5133930;28;20386;-45
2022/03/17 05:45:02;;;;;;;35.95;19.33;;;;;;;;;;5134014;28;20026;-45
2022/03/17 05:47:34;;;;;;;33.75;18.17;;;;;;;;;;5133782;28;20414;-44
2022/03/17 05:50:00;;;;;;;30.23;17.23;;;;;;;;;;5115833;28;20039;-45
2022/03/17 05:52:27;;;;;;;31.92;18.25;;;;;;;;;;5133812;28;20019;-45
2022/03/17 05:54:54;;;;;;;32.42;18.30;;;;;;;;;;5134017;28;20030;-45
2022/03/17 05:57:20;;;;;;;30.15;16.65;;;;;;;;;;5133819;28;20023;-43
2022/03/17 05:59:46;;;;;;;32.05;17.70;;;;;;;;;;5133759;28;20046;-43
2022/03/17 06:02:12;;;;;;;38.42;19.92;;;;;;;;;;5133763;28;20111;-43
2022/03/17 06:04:40;;;;;;;34.22;18.67;;;;;;;;;;5133670;28;20011;-43
2022/03/17 06:07:06;;;;;;;34.25;18.08;;;;;;;;;;5133853;28;20027;-46
2022/03/17 06:09:32;;;;;;;33.80;18.67;;;;;;;;;;5133704;28;20470;-45
2022/03/17 06:11:58;;;;;;;32.95;16.55;;;;;;;;;;5133887;28;20054;-47
2022/03/17 06:14:26;;;;;;;33.70;17.73;;;;;;;;;;5133648;28;20156;-46
2022/03/17 06:16:52;;;;;;;36.45;19.23;;;;;;;;;;5133459;28;20039;-46
2022/03/17 06:19:19;;;;;;;32.53;17.77;;;;;;;;;;5133744;28;20055;-46
2022/03/17 06:21:45;;;;;;;36.33;19.30;;;;;;;;;;5133599;28;20016;-46
2022/03/17 06:24:12;;;;;;;31.80;17.20;;;;;;;;;;5133572;28;20106;-46
2022/03/17 06:26:38;;;;;;;38.10;19.48;;;;;;;;;;5133775;28;20019;-53
2022/03/17 06:29:04;;;;;;;34.33;18.08;;;;;;;;;;5133592;28;20023;-48
2022/03/17 06:31:30;;;;;;;33.75;18.65;;;;;;;;;;5133495;28;20118;-52
2022/03/17 06:33:56;;;;;;;40.22;18.85;;;;;;;;;;5136317;27;20441;-51
2022/03/17 06:36:22;;;;;;;50.55;22.23;;;;;;;;;;5137526;27;20015;-49
2022/03/17 06:38:51;;;;;;;63.35;27.48;;;;;;;;;;5137455;27;20043;-51
2022/03/17 06:41:17;;;;;;;59.30;29.15;;;;;;;;;;5137384;27;20030;-50
2022/03/17 06:43:43;;;;;;;36.88;20.88;;;;;;;;;;5118884;27;20031;-46
2022/03/17 06:46:09;;;;;;;38.70;20.58;;;;;;;;;;5137281;27;20061;-48
2022/03/17 06:48:35;;;;;;;31.38;17.95;;;;;;;;;;5136869;27;20554;-49
2022/03/17 06:51:01;;;;;;;29.98;16.40;;;;;;;;;;5137204;27;20042;-51
2022/03/17 06:53:27;;;;;;;37.25;19.73;;;;;;;;;;5137117;27;20071;-48
2022/03/17 06:55:54;;;;;;;48.30;22.48;;;;;;;;;;5137330;27;20019;-49
2022/03/17 06:58:20;;;;;;;38.50;19.75;;;;;;;;;;5136862;27;20122;-51
2022/03/17 07:00:46;;;;;;;34.53;17.25;;;;;;;;;;5136868;27;20467;-51
2022/03/17 07:03:12;;;;;;;35.95;17.98;;;;;;;;;;5136717;27;20046;-53
2022/03/17 07:05:40;;;;;;;36.88;19.70;;;;;;;;;;5136670;27;20068;-53
2022/03/17 07:08:06;;;;;;;42.20;21.70;;;;;;;;;;5136974;27;20019;-52
2022/03/17 07:10:32;;;;;;;28.23;15.50;;;;;;;;;;5136655;27;20019;-52
2022/03/17 07:12:58;;;;;;;27.25;15.85;;;;;;;;;;5136874;27;20471;-52
2022/03/17 07:15:25;;;;;;;33.75;19.08;;;;;;;;;;5136490;27;20027;-50
2022/03/17 07:17:51;;;;;;;31.95;17.20;;;;;;;;;;5136423;27;20031;-52
2022/03/17 07:20:21;;;;;;;27.25;16.60;;;;;;;;;;5136546;27;20483;-51
2022/03/17 07:22:49;;;;;;;33.63;16.67;;;;;;;;;;5136683;27;20046;-48
2022/03/17 07:25:17;;;;;;;30.27;17.58;;;;;;;;;;5136572;27;20015;-50
2022/03/17 07:27:45;;;;;;;29.95;16.25;;;;;;;;;;5136554;27;20058;-44
2022/03/17 07:30:18;;;;;;;40.95;21.30;;;;;;;;;;5136232;27;20015;-47
2022/03/17 07:32:45;;;;;;;33.10;18.15;;;;;;;;;;5136227;27;20498;-43
2022/03/17 07:35:12;;;;;;;32.20;18.10;;;;;;;;;;5136271;27;20047;-48
2022/03/17 07:37:39;;;;;;;28.55;16.00;;;;;;;;;;5136170;27;20387;-45
2022/03/17 07:40:05;;;;;;;27.13;16.08;;;;;;;;;;5136153;27;20020;-46
2022/03/17 07:42:31;;;;;;;30.67;16.92;;;;;;;;;;5136265;27;20035;-45
2022/03/17 07:44:57;;;;;;;39.63;20.98;;;;;;;;;;5134869;27;20491;-44
2022/03/17 07:47:23;;;;;;;44.47;23.73;;;;;;;;;;5135854;27;20116;-47
2022/03/17 07:49:50;;;;;;;37.17;20.50;;;;;;;;;;5136378;27;20080;-44
2022/03/17 07:52:16;;;;;;;79.47;37.17;;;;;;;;;;5135894;27;20356;-44
2022/03/17 07:54:48;;;;;;;39.55;22.58;;;;;;;;;;5135946;27;20026;-45
2022/03/17 07:57:17;;;;;;;34.35;19.98;;;;;;;;;;5135910;27;20027;-47
2022/03/17 07:59:43;;;;;;;29.95;17.45;;;;;;;;;;5135747;27;20038;-47
2022/03/17 08:02:09;;;;;;;33.03;17.83;;;;;;;;;;5135959;27;20553;-45
2022/03/17 08:04:36;;;;;;;52.28;27.10;;;;;;;;;;5135695;27;20027;-45
2022/03/17 08:07:03;;;;;;;37.05;21.65;;;;;;;;;;5135616;27;20023;-43
2022/03/17 08:09:30;;;;;;;40.05;21.60;;;;;;;;;;5135624;27;20011;-50
2022/03/17 08:11:59;;;;;;;46.50;25.65;;;;;;;;;;5135670;27;20146;-44
2022/03/17 08:14:27;;;;;;;34.70;20.95;;;;;;;;;;5135318;27;20038;-44
2022/03/17 08:16:54;;;;;;;34.67;19.85;;;;;;;;;;5135218;27;20509;-46
2022/03/17 08:19:20;;;;;;;34.08;19.45;;;;;;;;;;5135638;27;20039;-42
2022/03/17 08:21:46;;;;;;;35.90;20.10;;;;;;;;;;5135280;27;20055;-42
2022/03/17 08:24:14;;;;;;;41.13;21.45;;;;;;;;;;5135460;27;20025;-43
2022/03/17 08:26:40;;;;;;;42.22;23.92;;;;;;;;;;5135287;27;20046;-42
2022/03/17 08:29:07;;;;;;;36.47;20.30;;;;;;;;;;5135141;27;20023;-43
2022/03/17 08:31:33;;;;;;;39.90;20.92;;;;;;;;;;5135147;27;20489;-43
2022/03/17 08:33:59;;;;;;;34.38;19.23;;;;;;;;;;5135151;27;20023;-42
2022/03/17 08:36:26;;;;;;;35.63;18.52;;;;;;;;;;5135392;27;20023;-43
2022/03/17 08:38:54;;;;;;;41.17;20.15;;;;;;;;;;5135191;27;20022;-44
2022/03/17 08:41:21;;;;;;;42.05;20.60;;;;;;;;;;5133975;27;20383;-50
2022/03/17 08:43:47;;;;;;;33.42;19.38;;;;;;;;;;5113798;27;20027;-49
2022/03/17 08:49:19;;;;;;;40.78;23.48;;;;;;;;;;5114430;28;20066;-50
2022/03/17 08:51:45;;;;;;;35.58;19.67;;;;;;;;;;5114222;28;20460;-43
2022/03/17 08:54:14;;;;;;;34.08;19.98;;;;;;;;;;5114239;28;20034;-44
2022/03/17 08:56:40;;;;;;;30.33;18.13;;;;;;;;;;5113990;28;20042;-46
2022/03/17 08:59:06;;;;;;;43.50;22.60;;;;;;;;;;5114427;28;20043;-49
2022/03/17 09:01:33;;;;;;;29.67;18.27;;;;;;;;;;5095895;28;20030;-44
2022/03/17 09:04:03;;;;;;;37.45;21.33;;;;;;;;;;5114386;28;20030;-49
2022/03/17 09:06:29;;;;;;;36.55;20.60;;;;;;;;;;5114044;28;20076;-45
2022/03/17 09:08:55;;;;;;;34.17;20.35;;;;;;;;;;5114027;28;20023;-46
2022/03/17 09:11:21;;;;;;;35.42;20.20;;;;;;;;;;5113921;28;20018;-49
2022/03/17 09:13:49;;;;;;;30.58;18.42;;;;;;;;;;5113857;28;20020;-50
2022/03/17 09:16:16;;;;;;;33.00;18.95;;;;;;;;;;5113975;28;20077;-51
2022/03/17 09:18:42;;;;;;;35.40;19.60;;;;;;;;;;5113688;28;20464;-45
2022/03/17 09:21:09;;;;;;;32.15;18.58;;;;;;;;;;5113923;28;20034;-46
2022/03/17 09:23:35;;;;;;;35.80;19.60;;;;;;;;;;5113949;28;20038;-50
2022/03/17 09:26:01;;;;;;;35.30;20.17;;;;;;;;;;5113817;28;20468;-52
2022/03/17 09:28:30;;;;;;;32.17;19.75;;;;;;;;;;5113753;28;20108;-49
2022/03/17 09:30:56;;;;;;;32.35;19.63;;;;;;;;;;5113813;28;20384;-52
2022/03/17 09:33:25;;;;;;;37.00;20.45;;;;;;;;;;5113869;28;20084;-51
2022/03/17 09:35:51;;;;;;;38.50;22.33;;;;;;;;;;5113982;28;20020;-47
2022/03/17 09:38:17;;;;;;;35.78;20.33;;;;;;;;;;5113611;28;20094;-50
2022/03/17 09:40:44;;;;;;;32.45;19.38;;;;;;;;;;5113532;28;20081;-47
2022/03/17 09:43:28;;;;;;;37.40;21.77;;;;;;;;;;5113746;28;20494;-49
2022/03/17 09:45:55;;;;;;;33.90;20.25;;;;;;;;;;5113689;28;20016;-50
2022/03/17 09:48:22;;;;;;;29.92;18.00;;;;;;;;;;5113305;28;20122;-49
2022/03/17 09:50:50;;;;;;;35.45;20.08;;;;;;;;;;5113673;28;20016;-50
2022/03/17 09:53:18;;;;;;;32.72;17.45;;;;;;;;;;5113575;28;20039;-51
2022/03/17 09:55:44;;;;;;;35.35;19.40;;;;;;;;;;5113689;28;20032;-51
2022/03/17 09:58:10;;;;;;;31.40;18.13;;;;;;;;;;5113499;28;20115;-52
2022/03/17 10:00:49;;;;;;;34.28;20.40;;;;;;;;;;5113504;28;20095;-51
2022/03/17 10:03:18;;;;;;;67.05;33.58;;;;;;;;;;5113463;28;20042;-52
2022/03/17 10:05:48;;;;;;;84.93;43.22;;;;;;;;;;5113371;28;20380;-51
2022/03/17 10:08:15;;;;;;;47.35;27.65;;;;;;;;;;5114920;28;20028;-52
2022/03/17 10:10:42;;;;;;;34.20;20.00;;;;;;;;;;5117593;28;20019;-52
2022/03/17 10:13:16;;;;;;;31.70;18.67;;;;;;;;;;5117292;28;20020;-52
2022/03/17 10:15:44;;;;;;;36.97;19.70;;;;;;;;;;5117225;28;20051;-50
2022/03/17 10:18:19;;;;;;;34.83;20.73;;;;;;;;;;5117171;28;20118;-52
2022/03/17 10:20:46;;;;;;;30.02;19.20;;;;;;;;;;5117312;28;20111;-49
2022/03/17 10:23:12;;;;;;;36.42;19.88;;;;;;;;;;5117261;28;20028;-50
2022/03/17 10:25:38;;;;;;;58.50;31.05;;;;;;;;;;5117199;28;20050;-51
2022/03/17 10:28:06;;;;;;;53.40;27.60;;;;;;;;;;5117176;28;20387;-52
2022/03/17 10:30:36;;;;;;;32.97;18.88;;;;;;;;;;5117167;28;20051;-53
2022/03/17 10:33:09;;;;;;;33.15;18.48;;;;;;;;;;5117036;28;20020;-51
2022/03/17 10:35:38;;;;;;;30.83;17.58;;;;;;;;;;5117203;28;20022;-49
2022/03/17 10:38:11;;;;;;;33.08;18.00;;;;;;;;;;5116908;28;20027;-50
2022/03/17 10:40:37;;;;;;;30.40;16.90;;;;;;;;;;5117296;28;20372;-50
2022/03/17 10:43:23;;;;;;;25.15;15.30;;;;;;;;;;5117046;28;20031;-49
2022/03/17 10:46:12;;;;;;;34.72;17.88;;;;;;;;;;5116574;28;20027;-47
2022/03/17 10:48:57;;;;;;;31.30;17.85;;;;;;;;;;5103932;28;20120;-49
2022/03/17 10:51:40;;;;;;;27.92;16.35;;;;;;;;;;5116867;28;20475;-51
2022/03/17 10:54:19;;;;;;;30.05;18.02;;;;;;;;;;5116557;28;20026;-50
2022/03/17 10:56:58;;;;;;;34.17;18.90;;;;;;;;;;5116758;28;20035;-51
2022/03/17 10:59:35;;;;;;;32.22;18.15;;;;;;;;;;5116417;28;20026;-48
2022/03/17 11:02:03;;;;;;;44.40;23.45;;;;;;;;;;5116554;28;20429;-48
2022/03/17 11:04:29;;;;;;;29.85;17.10;;;;;;;;;;5116333;28;20110;-45
2022/03/17 11:06:56;;;;;;;31.27;18.02;;;;;;;;;;5116304;28;20028;-49
2022/03/17 11:09:23;;;;;;;35.83;19.77;;;;;;;;;;5116401;28;20535;-49
2022/03/17 11:11:53;;;;;;;34.78;20.02;;;;;;;;;;5116392;28;20026;-50
2022/03/17 11:14:21;;;;;;;38.90;21.50;;;;;;;;;;5116326;28;20016;-51
2022/03/17 11:16:50;;;;;;;32.47;18.42;;;;;;;;;;5116129;28;20040;-51
2022/03/17 11:19:17;;;;;;;29.90;17.50;;;;;;;;;;5116275;28;20104;-51
2022/03/17 11:21:48;;;;;;;34.45;19.20;;;;;;;;;;5116257;28;20077;-51
2022/03/17 11:24:21;;;;;;;36.33;19.63;;;;;;;;;;5116091;28;20034;-49
2022/03/17 11:26:48;;;;;;;33.20;17.70;;;;;;;;;;5116221;28;20360;-51
2022/03/17 11:29:18;;;;;;;34.95;18.63;;;;;;;;;;5115967;28;20475;-48
2022/03/17 11:31:56;;;;;;;37.60;19.23;;;;;;;;;;5116485;28;20493;-50
2022/03/17 11:34:37;;;;;;;30.38;17.20;;;;;;;;;;5115957;28;20024;-51
2022/03/17 11:37:23;;;;;;;29.90;16.85;;;;;;;;;;5115681;28;20024;-51
2022/03/17 11:39:50;;;;;;;35.70;18.27;;;;;;;;;;5115894;28;20020;-50
2022/03/17 11:42:35;;;;;;;29.92;16.15;;;;;;;;;;5115750;28;20028;-52
2022/03/17 11:45:21;;;;;;;30.63;16.80;;;;;;;;;;5115836;28;20051;-50
2022/03/17 11:48:11;;;;;;;27.38;14.82;;;;;;;;;;5101672;28;20074;-52
2022/03/17 11:50:37;;;;;;;32.20;15.97;;;;;;;;;;5033132;28;20564;-50
2022/03/17 11:53:03;;;;;;;25.88;15.43;;;;;;;;;;5032827;28;20568;-48
2022/03/17 11:55:35;;;;;;;27.33;16.10;;;;;;;;;;5032955;28;20116;-50
2022/03/17 11:58:20;;;;;;;25.92;14.48;;;;;;;;;;5032968;28;20029;-51
2022/03/17 12:00:46;;;;;;;24.95;13.38;;;;;;;;;;5032696;28;20021;-50
2022/03/17 12:03:13;;;;;;;25.77;14.57;;;;;;;;;;5032882;28;20041;-50
2022/03/17 12:05:42;;;;;;;23.77;13.35;;;;;;;;;;5032706;28;20033;-53
2022/03/17 12:08:08;;;;;;;27.30;14.35;;;;;;;;;;5032479;28;20084;-51
2022/03/17 12:11:03;;;;;;;24.92;14.70;;;;;;;;;;5032615;28;20034;-50
2022/03/17 12:13:29;;;;;;;23.73;12.23;;;;;;;;;;5032315;28;20030;-52
2022/03/17 12:15:55;;;;;;;23.40;13.50;;;;;;;;;;5032503;28;20026;-50
2022/03/17 12:18:21;;;;;;;29.95;14.88;;;;;;;;;;5032019;28;20509;-50
2022/03/17 12:20:51;;;;;;;22.67;13.07;;;;;;;;;;5032689;28;20095;-50
2022/03/17 12:23:36;;;;;;;24.67;13.40;;;;;;;;;;5032490;28;20026;-49
2022/03/17 12:26:03;;;;;;;23.90;12.40;;;;;;;;;;5015690;28;20021;-50
2022/03/17 12:28:31;;;;;;;22.70;11.70;;;;;;;;;;5105174;28;20035;-50
2022/03/17 12:30:57;;;;;;;27.35;14.18;;;;;;;;;;5114212;28;20094;-49
2022/03/17 12:33:24;;;;;;;22.55;13.20;;;;;;;;;;5115122;28;20020;-50
2022/03/17 12:36:03;;;;;;;25.40;14.02;;;;;;;;;;5114706;28;20030;-51
2022/03/17 12:38:30;;;;;;;25.13;13.57;;;;;;;;;;5114924;28;20032;-49
2022/03/17 12:40:56;;;;;;;21.83;12.85;;;;;;;;;;5114664;28;20028;-49
2022/03/17 12:43:23;;;;;;;20.25;12.55;;;;;;;;;;5114336;28;20031;-50
2022/03/17 12:45:51;;;;;;;24.50;13.48;;;;;;;;;;5114527;28;20420;-52
2022/03/17 12:48:17;;;;;;;20.27;11.27;;;;;;;;;;5114288;28;20044;-47
2022/03/17 12:50:45;;;;;;;23.50;13.25;;;;;;;;;;5114422;28;20023;-51
2022/03/17 12:53:11;;;;;;;23.27;13.02;;;;;;;;;;5114470;28;20545;-49
2022/03/17 12:55:37;;;;;;;25.48;15.13;;;;;;;;;;5114201;28;20535;-51
2022/03/17 12:58:04;;;;;;;20.48;12.98;;;;;;;;;;5114320;28;20518;-52
2022/03/17 13:00:32;;;;;;;23.27;13.23;;;;;;;;;;5114577;28;20074;-52
2022/03/17 13:02:59;;;;;;;20.02;12.10;;;;;;;;;;5114088;28;20031;-49
2022/03/17 13:08:11;;;;;;;21.58;11.20;;;;;;;;;;5114569;28;20042;-52
2022/03/17 13:16:09;;;;;;;22.85;11.75;;;;;;;;;;5114469;28;20031;-50
2022/03/17 13:18:45;;;;;;;22.13;11.63;;;;;;;;;;5114153;28;20031;-51
2022/03/17 13:21:14;;;;;;;17.67;10.90;;;;;;;;;;5113872;28;20042;-51
2022/03/17 13:23:40;;;;;;;24.95;13.20;;;;;;;;;;5113873;28;20123;-49
2022/03/17 13:26:07;;;;;;;19.75;11.18;;;;;;;;;;5113890;28;20012;-51
2022/03/17 13:28:33;;;;;;;18.95;11.70;;;;;;;;;;5114057;28;20456;-49
2022/03/17 13:30:59;;;;;;;22.13;12.43;;;;;;;;;;5113731;28;20016;-51
2022/03/17 13:33:32;;;;;;;21.80;12.05;;;;;;;;;;5114093;28;20027;-49
2022/03/17 13:35:59;;;;;;;23.58;13.25;;;;;;;;;;5113803;28;20024;-49
2022/03/17 13:38:32;;;;;;;21.95;12.90;;;;;;;;;;5113867;28;20016;-49
2022/03/17 13:41:00;;;;;;;21.67;12.35;;;;;;;;;;5114023;28;20059;-45
2022/03/17 13:43:28;;;;;;;19.65;11.30;;;;;;;;;;5115733;28;20031;-44
2022/03/17 13:45:55;;;;;;;21.38;12.85;;;;;;;;;;5118119;28;20054;-44
2022/03/17 13:48:22;;;;;;;21.95;11.82;;;;;;;;;;5117858;28;20094;-44
2022/03/17 13:50:51;;;;;;;23.35;12.07;;;;;;;;;;5117898;28;20024;-44
2022/03/17 13:53:20;;;;;;;21.02;12.43;;;;;;;;;;5117886;28;20077;-45
2022/03/17 13:55:59;;;;;;;20.85;11.88;;;;;;;;;;5117848;28;20487;-49
2022/03/17 13:58:30;;;;;;;23.08;12.07;;;;;;;;;;5118072;28;20081;-50
2022/03/17 14:00:57;;;;;;;19.08;11.38;;;;;;;;;;5117841;28;20016;-47
2022/03/17 14:03:33;;;;;;;22.45;11.55;;;;;;;;;;5117658;28;20031;-50
2022/03/17 14:06:04;;;;;;;24.63;12.45;;;;;;;;;;5117848;28;20108;-48
2022/03/17 14:08:32;;;;;;;21.85;12.13;;;;;;;;;;5117916;28;20091;-50
2022/03/17 14:11:01;;;;;;;27.88;14.50;;;;;;;;;;5117456;28;20068;-45
2022/03/17 14:13:27;;;;;;;23.00;12.93;;;;;;;;;;5117668;28;20032;-46
2022/03/17 14:15:54;;;;;;;22.98;12.88;;;;;;;;;;5117310;28;20100;-46
2022/03/17 14:18:20;;;;;;;27.88;14.30;;;;;;;;;;5117626;28;20051;-46
2022/03/17 14:20:46;;;;;;;26.15;14.60;;;;;;;;;;5117259;28;20028;-45
2022/03/17 14:25:58;;;;;;;26.60;15.13;;;;;;;;;;5117677;28;20057;-45
2022/03/17 14:28:26;;;;;;;29.83;16.13;;;;;;;;;;5117187;28;20455;-50
2022/03/17 14:30:54;;;;;;;26.08;14.93;;;;;;;;;;5117299;28;20042;-50
2022/03/17 14:33:21;;;;;;;29.20;15.10;;;;;;;;;;5117225;28;20035;-47
2022/03/17 14:35:47;;;;;;;26.13;14.57;;;;;;;;;;5117085;28;20012;-45
2022/03/17 14:38:13;;;;;;;28.92;15.70;;;;;;;;;;5117162;28;20467;-45
2022/03/17 14:40:39;;;;;;;29.23;16.08;;;;;;;;;;5117000;28;20065;-50
2022/03/17 14:43:05;;;;;;;28.05;15.45;;;;;;;;;;5116752;28;20038;-49